Terminal Aerodrome Forecast
Issued by NWS

Home | Current Version | Previous Version | Text Only | Print | Product List | Glossary On
Versions: 1 2 3 4 5 6 7 8 9 10 11 12 13 14 15 16 17 18 19 20 21 22 23 24 25
000
FTUS41 KBGM 280300 AAA
TAFITH
TAF AMD
KITH 280308Z 2803/2824 34008KT P6SM -SHSN SCT012 OVC025
      TEMPO 2803/2806 3SM -SHSN OVC012
     FM281500 33012KT P6SM -SHSN SCT025 OVC035=

USA.gov is the U.S. government's official web portal to all federal, state and local government web resources and services.